createdAt,value
2023-02-12T00:03:59.048Z,6.65
2023-02-12T00:09:03.148Z,6.64
2023-02-12T00:14:07.350Z,6.61
2023-02-12T00:19:11.497Z,6.60
2023-02-12T00:24:15.627Z,6.58
2023-02-12T00:29:19.775Z,6.58
2023-02-12T00:34:23.961Z,6.56
2023-02-12T00:39:28.119Z,6.55
2023-02-12T00:44:32.276Z,6.55
2023-02-12T00:49:36.468Z,6.55
2023-02-12T00:54:40.625Z,6.56
2023-02-12T00:59:44.762Z,6.56
2023-02-12T01:04:48.972Z,6.55
2023-02-12T01:09:53.070Z,6.55
2023-02-12T01:14:57.208Z,6.54
2023-02-12T01:20:01.496Z,6.53
2023-02-12T01:25:05.566Z,6.52
2023-02-12T01:30:09.753Z,6.53
2023-02-12T01:35:13.907Z,6.56
2023-02-12T01:40:18.082Z,6.57
2023-02-12T01:45:22.218Z,6.56
2023-02-12T01:50:24.514Z,6.60
2023-02-12T01:55:28.646Z,6.59
2023-02-12T02:00:30.953Z,6.56
2023-02-12T02:05:35.124Z,6.55
2023-02-12T02:10:39.254Z,6.53
2023-02-12T02:15:41.569Z,6.51
2023-02-12T02:20:45.679Z,6.47
2023-02-12T02:25:49.874Z,6.46
2023-02-12T02:30:54.095Z,6.42
2023-02-12T02:35:58.237Z,6.42
2023-02-12T02:41:02.333Z,6.39
2023-02-12T02:46:06.536Z,6.39
2023-02-12T02:51:10.669Z,6.38
2023-02-12T02:56:14.829Z,6.37
2023-02-12T03:01:19.094Z,6.35
2023-02-12T03:06:23.169Z,6.35
2023-02-12T03:11:27.324Z,6.37
2023-02-12T03:16:31.497Z,6.36
2023-02-12T03:21:35.818Z,6.34
2023-02-12T03:26:39.812Z,6.39
2023-02-12T03:36:48.148Z,6.37
2023-02-12T03:41:52.287Z,6.36
2023-02-12T03:46:56.476Z,6.36
2023-02-12T03:52:00.647Z,6.35
2023-02-12T03:57:04.769Z,6.35
2023-02-12T04:02:09.067Z,6.33
2023-02-12T04:07:11.194Z,6.31
2023-02-12T04:12:15.401Z,6.31
2023-02-12T04:17:17.628Z,6.29
2023-02-12T04:22:21.840Z,6.26
2023-02-12T04:27:25.980Z,6.22
2023-02-12T04:32:30.140Z,6.21
2023-02-12T04:37:34.298Z,6.19
2023-02-12T04:42:38.440Z,6.19
2023-02-12T04:47:42.606Z,6.18
2023-02-12T04:52:46.803Z,6.20
2023-02-12T04:57:50.979Z,6.19
2023-02-12T05:02:55.143Z,6.18
2023-02-12T05:07:59.257Z,6.15
2023-02-12T05:13:03.482Z,6.15
2023-02-12T05:18:07.605Z,6.14
2023-02-12T05:23:11.767Z,6.11
2023-02-12T05:28:15.971Z,6.10
2023-02-12T05:33:20.091Z,6.09
2023-02-12T05:38:24.265Z,6.07
2023-02-12T05:43:28.448Z,6.07
2023-02-12T05:48:32.577Z,6.06
2023-02-12T05:53:36.736Z,6.07
2023-02-12T05:58:40.896Z,6.08
2023-02-12T06:03:43.345Z,6.06
2023-02-12T06:08:47.708Z,6.07
2023-02-12T06:13:51.520Z,6.06
2023-02-12T06:18:55.655Z,6.05
2023-02-12T06:23:58.182Z,6.04
2023-02-12T06:29:02.110Z,6.03
2023-02-12T06:34:06.276Z,6.02
2023-02-12T06:39:10.447Z,6.03
2023-02-12T06:44:14.604Z,6.05
2023-02-12T06:49:18.769Z,6.06
2023-02-12T06:54:22.929Z,6.03
2023-02-12T06:59:27.100Z,6.03
2023-02-12T07:04:31.263Z,6.04
2023-02-12T07:09:35.405Z,6.04
2023-02-12T07:14:39.620Z,6.09
2023-02-12T07:19:43.746Z,6.12
2023-02-12T07:24:47.921Z,6.15
2023-02-12T07:29:52.081Z,6.18
2023-02-12T07:34:56.230Z,6.22
2023-02-12T07:40:00.411Z,6.25
2023-02-12T07:45:04.549Z,6.29
2023-02-12T07:50:08.731Z,6.32
2023-02-12T07:55:12.896Z,6.38
2023-02-12T08:00:17.038Z,6.45
2023-02-12T08:05:21.231Z,6.52
2023-02-12T08:10:23.477Z,6.59
2023-02-12T08:15:27.618Z,6.68
2023-02-12T08:20:29.927Z,6.77
2023-02-12T08:25:34.072Z,6.85
2023-02-12T08:30:38.265Z,6.96
2023-02-12T08:35:42.390Z,7.04
2023-02-12T08:40:46.642Z,7.15
2023-02-12T08:45:50.769Z,7.24
2023-02-12T08:50:54.900Z,7.30
2023-02-12T09:01:03.304Z,7.39
2023-02-12T09:06:07.350Z,7.47
2023-02-12T09:11:11.512Z,7.54
2023-02-12T09:16:15.752Z,7.61
2023-02-12T09:21:19.850Z,7.68
2023-02-12T09:26:24.047Z,7.76
2023-02-12T09:31:28.328Z,7.85
2023-02-12T09:36:32.377Z,7.89
2023-02-12T09:41:36.477Z,7.93
2023-02-12T09:46:40.700Z,8.05
2023-02-12T09:51:44.836Z,8.16
2023-02-12T09:56:48.996Z,8.25
2023-02-12T10:01:53.195Z,8.37
2023-02-12T10:06:57.315Z,8.56
2023-02-12T10:11:59.578Z,8.71
2023-02-12T10:17:03.734Z,8.85
2023-02-12T10:22:06.010Z,8.85
2023-02-12T10:27:10.183Z,8.91
2023-02-12T10:32:14.334Z,8.95
2023-02-12T10:37:18.547Z,9.08
2023-02-12T10:42:22.664Z,9.06
2023-02-12T10:47:26.869Z,9.23
2023-02-12T10:52:30.999Z,9.28
2023-02-12T10:57:35.141Z,9.31
2023-02-12T11:02:39.322Z,9.38
2023-02-12T11:07:43.471Z,9.51
2023-02-12T11:12:47.613Z,9.57
2023-02-12T11:17:51.902Z,9.44
2023-02-12T11:22:54.080Z,9.46
2023-02-12T11:27:58.300Z,9.62
2023-02-12T11:33:02.381Z,9.63
2023-02-12T11:38:06.561Z,9.72
2023-02-12T11:43:10.676Z,9.75
2023-02-12T11:48:14.878Z,9.82
2023-02-12T11:53:19.017Z,9.82
2023-02-12T11:58:23.223Z,9.72
2023-02-12T12:03:27.452Z,9.66
2023-02-12T12:08:29.608Z,9.58
2023-02-12T12:13:33.772Z,9.64
2023-02-12T12:18:36.097Z,9.76
2023-02-12T12:23:40.204Z,9.75
2023-02-12T12:28:44.370Z,9.63
2023-02-12T12:33:48.550Z,9.47
2023-02-12T12:43:56.884Z,9.47
2023-02-12T12:49:01.028Z,9.52
2023-02-12T12:54:05.203Z,9.58
2023-02-12T12:59:09.320Z,9.56
2023-02-12T13:04:13.479Z,9.54
2023-02-12T13:09:17.656Z,9.50
2023-02-12T13:14:21.808Z,9.48
2023-02-12T13:19:26.018Z,9.48
2023-02-12T13:24:30.181Z,9.39
2023-02-12T13:29:34.319Z,9.38
2023-02-12T13:34:38.646Z,9.33
2023-02-12T13:39:42.656Z,9.28
2023-02-12T13:44:46.816Z,9.30
2023-02-12T13:49:51.114Z,9.33
2023-02-12T13:54:55.097Z,9.30
2023-02-12T13:59:59.305Z,9.36
2023-02-12T14:05:03.467Z,9.30
2023-02-12T14:10:05.702Z,9.24
2023-02-12T14:15:10.068Z,9.29
2023-02-12T14:20:12.177Z,9.31
2023-02-12T14:25:16.321Z,9.26
2023-02-12T14:30:20.498Z,9.20
2023-02-12T14:35:24.630Z,9.14
2023-02-12T14:40:28.796Z,9.09
2023-02-12T14:45:32.965Z,9.05
2023-02-12T14:50:37.095Z,9.03
2023-02-12T14:55:41.279Z,9.00
2023-02-12T15:00:45.460Z,8.99
2023-02-12T15:05:49.580Z,8.94
2023-02-12T15:10:53.753Z,8.93
2023-02-12T15:15:57.929Z,8.87
2023-02-12T15:21:02.087Z,8.85
2023-02-12T15:26:06.269Z,8.83
2023-02-12T15:31:10.722Z,8.76
2023-02-12T15:36:14.549Z,8.74
2023-02-12T15:41:18.704Z,8.70
2023-02-12T15:46:22.958Z,8.70
2023-02-12T15:51:27.056Z,8.65
2023-02-12T15:56:31.226Z,8.62
2023-02-12T16:01:35.521Z,8.56
2023-02-12T16:06:37.636Z,8.53
2023-02-12T16:11:41.825Z,8.48
2023-02-12T16:16:44.098Z,8.44
2023-02-12T16:21:48.269Z,8.42
2023-02-12T16:26:52.411Z,8.37
2023-02-12T16:31:56.571Z,8.33
2023-02-12T16:37:00.739Z,8.30
2023-02-12T16:42:05.070Z,8.25
2023-02-12T16:47:09.083Z,8.20
2023-02-12T16:52:13.209Z,8.18
2023-02-12T16:57:17.368Z,8.14
2023-02-12T17:02:21.528Z,8.10
2023-02-12T17:07:25.761Z,8.08
2023-02-12T17:12:29.928Z,8.06
2023-02-12T17:17:34.078Z,8.02
2023-02-12T17:22:38.219Z,8.00
2023-02-12T17:27:42.400Z,7.97
2023-02-12T17:32:46.775Z,7.96
2023-02-12T17:37:50.698Z,7.96
2023-02-12T17:42:54.872Z,7.97
2023-02-12T17:47:59.031Z,7.93
2023-02-12T17:53:03.193Z,7.93
2023-02-12T17:58:07.337Z,7.89
2023-02-12T18:03:09.595Z,7.86
2023-02-12T18:08:13.754Z,7.85
2023-02-12T18:13:16.027Z,7.83
2023-02-12T18:18:20.197Z,7.82
2023-02-12T18:23:24.355Z,7.78
2023-02-12T18:28:28.556Z,7.78
2023-02-12T18:33:32.688Z,7.78
2023-02-12T18:38:36.857Z,7.76
2023-02-12T18:43:42.138Z,7.75
2023-02-12T18:48:45.179Z,7.74
2023-02-12T18:53:49.519Z,7.72
2023-02-12T18:58:53.478Z,7.72
2023-02-12T19:03:57.656Z,7.70
2023-02-12T19:09:01.842Z,7.68
2023-02-12T19:14:05.940Z,7.64
2023-02-12T19:19:10.106Z,7.62
2023-02-12T19:24:14.301Z,7.63
2023-02-12T19:29:18.501Z,7.62
2023-02-12T19:34:22.587Z,7.61
2023-02-12T19:39:26.784Z,7.59
2023-02-12T19:44:30.959Z,7.62
2023-02-12T19:49:35.132Z,7.58
2023-02-12T19:54:39.298Z,7.55
2023-02-12T19:59:41.546Z,7.55
2023-02-12T20:04:45.731Z,7.55
2023-02-12T20:09:49.874Z,7.57
2023-02-12T20:14:54.051Z,7.56
2023-02-12T20:19:58.171Z,7.57
2023-02-12T20:25:02.369Z,7.55
2023-02-12T20:30:06.528Z,7.55
2023-02-12T20:35:10.656Z,7.52
2023-02-12T20:40:14.855Z,7.51
2023-02-12T20:45:19.095Z,7.51
2023-02-12T20:50:23.165Z,7.50
2023-02-12T20:55:27.316Z,7.47
2023-02-12T21:00:31.467Z,7.46
2023-02-12T21:05:35.666Z,7.46
2023-02-12T21:10:39.834Z,7.45
2023-02-12T21:15:44.031Z,7.44
2023-02-12T21:20:48.106Z,7.42
2023-02-12T21:25:52.247Z,7.41
2023-02-12T21:30:56.444Z,7.40
2023-02-12T21:36:00.647Z,7.38
2023-02-12T21:41:04.750Z,7.38
2023-02-12T21:46:07.099Z,7.36
2023-02-12T21:51:11.224Z,7.34
2023-02-12T21:56:13.452Z,7.32
2023-02-12T22:01:17.708Z,7.29
2023-02-12T22:06:21.779Z,7.32
2023-02-12T22:11:25.954Z,7.28
2023-02-12T22:16:30.139Z,7.25
2023-02-12T22:21:34.302Z,7.24
2023-02-12T22:26:38.462Z,7.22
2023-02-12T22:31:42.823Z,7.25
2023-02-12T22:36:46.800Z,7.19
2023-02-12T22:41:50.957Z,7.17
2023-02-12T22:46:55.080Z,7.16
2023-02-12T22:51:59.224Z,7.16
2023-02-12T22:57:03.425Z,7.17
2023-02-12T23:02:07.589Z,7.14
2023-02-12T23:07:11.711Z,7.14
2023-02-12T23:12:15.900Z,7.12
2023-02-12T23:17:20.048Z,7.09
2023-02-12T23:22:24.199Z,7.07
2023-02-12T23:27:28.568Z,7.06
2023-02-12T23:32:32.525Z,7.04
2023-02-12T23:37:36.723Z,7.00
2023-02-12T23:42:38.994Z,6.97
2023-02-12T23:47:43.202Z,6.97
2023-02-12T23:52:45.442Z,6.94
2023-02-12T23:57:49.686Z,6.93
